Terminal Aerodrome Forecast
Issued by NWS

Home | Current Version | Previous Version | Text Only | Print | Product List | Glossary Off
Versions: 1 2 3 4 5 6 7 8 9 10 11 12 13

000
FTUS42 KMHX 240500
TAFPGV
TAF
KPGV 240539Z 2406/2506 VRB05KT 4SM -RA BR OVC003 WS015/19035KT
     FM240900 27008KT 3SM -RA BR OVC004
     FM241200 30010G16KT 3SM -SHRA BR OVC007
     FM241800 30012G19KT P6SM BKN025
     FM242200 29006KT P6SM SKC
      AMD LTD TO CLD VIS AND WIND=

USA.gov is the U.S. government's official web portal to all federal, state and local government web resources and services.